Decoded Metar for KRXE (REXBURG in ID, USA) (IATA:RXE) | Meteo·Mobile Aviation Weather
aviador You're here:

KRXE Decoded Metar

REXBURG in ID, USA
Report Time2018-09-18 14:53:00
UTC Time2018-09-18 15:30:32
Flight Rules vfr VFR
Wind060° at 03 kt
W.Decomp.*RWY 35: 1.7 kt HW 2.5 kt RCW
W.Rank060° ranks 8
Current wind is below 060° avg. (5.2)
Visibility9999 m
Phenomena:N/A
Clouds:N/A
Expected CloudBase > 3,600 ft AGL from Temp-Dew spread
CeilingNone
Temp07°C (ISA +2)
Dew Point-2°C (53% RH)
AAT3.7°C
QNH1016 hPa
Density Alt5,033 ft
Elevation4,856 ft
Report Wrong Elevation
Raw Report
KRXE 181453Z AUTO 06003KT 10SM CLR 07/M02 A3001 RMK AO2 SLP142
T00721017 51009=

Extra information for KRXE:More info

Metar Taf Metar & Taf Last 4 Metars F.Rules Stats Wind Profile Meteogram Temp Stats Airport Information Weather charts Add Link Nearby VenuesMetar ALERT Operation Metar Decoded Social comments

AIRNAV info for KRXE